aviador You're here:

KGFK Decoded Metar

GRAND FORKS in ND, USA
Report Time2018-06-20 16:53:00
UTC Time2018-06-20 17:22:48
Flight Rules vfr VFR
Wind040° at 07 kt
W.Decomp.*RWY 35: 5.0 kt HW 4.9 kt RCW
RWY 09: 3.9 kt HW 5.8 kt LCW
W.Rank040° ranks 31
Current wind is below 040° avg. (7.9)
Visibility9999 m
Phenomena:N/A
Clouds:Scattered 250 Hf
Expected CloudBase > 5,200 ft AGL from Temp-Dew spread
CeilingNone
Temp27°C (ISA +13)
Dew Point14°C (45% RH)
Heat Index27.1°C
AAT25.8°C
QNH1015 hPa
Density Alt2,297 ft
Elevation623 ft
Report Wrong Elevation
Raw Report
KGFK 201653Z 04007KT 10SM SCT250 27/14 A2996 RMK AO2 SLP144
T02720139=

Extra information for KGFK:More info

Metar Taf Metar & Taf Last 4 Metars F.Rules Stats Wind Profile Meteogram Temp Stats Airport Information Weather charts Add Link Nearby VenuesMetar ALERT Operation Metar Decoded Social comments

AIRNAV info for KGFK